createdAt,value
2018-08-31T00:00:41.704Z,89.74
2018-08-31T00:03:11.667Z,89.85
2018-08-31T00:05:53.739Z,90.00
2018-08-31T00:09:36.367Z,89.72
2018-08-31T00:12:17.843Z,90.58
2018-08-31T00:14:46.576Z,89.60
2018-08-31T00:17:15.447Z,89.72
2018-08-31T00:19:44.297Z,90.27
2018-08-31T00:22:12.811Z,90.07
2018-08-31T00:25:54.090Z,90.27
2018-08-31T00:28:32.850Z,90.22
2018-08-31T00:31:12.644Z,90.43
2018-08-31T00:34:54.079Z,90.55
2018-08-31T00:37:53.210Z,90.85
2018-08-31T00:41:03.896Z,90.94
2018-08-31T00:44:45.482Z,90.82
2018-08-31T00:47:14.330Z,91.02
2018-08-31T00:49:43.098Z,91.30
2018-08-31T00:52:11.889Z,90.94
2018-08-31T00:54:40.676Z,90.78
2018-08-31T00:57:09.316Z,91.10
2018-08-31T00:59:38.117Z,91.65
2018-08-31T01:02:06.903Z,91.48
2018-08-31T01:04:35.486Z,91.28
2018-08-31T01:07:04.043Z,91.05
2018-08-31T01:09:32.582Z,91.18
2018-08-31T01:12:01.188Z,91.45
2018-08-31T01:14:29.818Z,91.46
2018-08-31T01:16:58.384Z,91.37
2018-08-31T01:19:27.082Z,92.13
2018-08-31T01:21:55.765Z,91.51
2018-08-31T01:24:24.419Z,91.77
2018-08-31T01:26:53.124Z,91.66
2018-08-31T01:29:21.622Z,91.72
2018-08-31T01:31:50.327Z,92.03
2018-08-31T01:34:18.892Z,92.22
2018-08-31T01:36:47.487Z,91.91
2018-08-31T01:39:16.225Z,92.41
2018-08-31T01:41:44.797Z,92.65
2018-08-31T01:44:13.481Z,91.96
2018-08-31T01:46:42.233Z,92.75
2018-08-31T01:49:10.731Z,92.31
2018-08-31T01:51:39.446Z,92.33
2018-08-31T01:54:08.171Z,92.41
2018-08-31T01:56:36.910Z,92.46
2018-08-31T01:59:05.734Z,92.69
2018-08-31T02:01:34.370Z,92.52
2018-08-31T02:04:04.052Z,92.96
2018-08-31T02:06:33.998Z,93.15
2018-08-31T02:09:08.031Z,93.67
2018-08-31T02:11:36.729Z,93.54
2018-08-31T02:14:06.233Z,93.49
2018-08-31T02:16:35.011Z,93.44
2018-08-31T02:19:03.723Z,93.39
2018-08-31T02:21:32.512Z,92.77
2018-08-31T02:24:01.524Z,93.26
2018-08-31T02:26:30.271Z,92.88
2018-08-31T02:28:58.898Z,92.56
2018-08-31T02:31:27.623Z,92.83
2018-08-31T02:33:56.199Z,92.56
2018-08-31T02:36:24.830Z,93.31
2018-08-31T02:38:53.903Z,93.31
2018-08-31T02:41:22.666Z,93.31
2018-08-31T02:43:51.988Z,92.82
2018-08-31T02:46:21.711Z,93.25
2018-08-31T02:48:51.344Z,93.75
2018-08-31T02:51:20.283Z,93.55
2018-08-31T02:53:48.983Z,93.32
2018-08-31T02:56:17.679Z,93.34
2018-08-31T02:58:46.357Z,93.80
2018-08-31T03:01:15.057Z,93.22
2018-08-31T03:03:43.655Z,93.80
2018-08-31T03:06:12.352Z,93.04
2018-08-31T03:08:41.129Z,92.76
2018-08-31T03:11:09.827Z,93.85
2018-08-31T03:13:38.485Z,93.74
2018-08-31T03:16:07.101Z,93.65
2018-08-31T03:18:35.842Z,93.22
2018-08-31T03:21:04.496Z,93.23
2018-08-31T03:23:33.160Z,93.17
2018-08-31T03:26:01.807Z,93.28
2018-08-31T03:28:30.364Z,93.46
2018-08-31T03:30:59.088Z,93.61
2018-08-31T03:33:27.754Z,93.29
2018-08-31T03:35:56.486Z,93.27
2018-08-31T03:38:25.169Z,93.04
2018-08-31T03:40:53.780Z,93.46
2018-08-31T03:43:22.338Z,93.15
2018-08-31T03:45:51.007Z,93.84
2018-08-31T03:48:19.718Z,93.29
2018-08-31T03:50:48.342Z,92.97
2018-08-31T03:53:17.009Z,93.16
2018-08-31T03:55:47.564Z,93.59
2018-08-31T03:58:16.171Z,93.40
2018-08-31T04:00:44.864Z,93.29
2018-08-31T04:03:13.553Z,93.36
2018-08-31T04:05:42.109Z,92.90
2018-08-31T04:08:10.696Z,93.12
2018-08-31T04:10:39.454Z,93.61
2018-08-31T04:13:08.122Z,93.03
2018-08-31T04:15:36.880Z,93.78
2018-08-31T04:18:05.779Z,93.71
2018-08-31T04:20:34.426Z,93.80
2018-08-31T04:23:03.053Z,93.57
2018-08-31T04:25:31.584Z,93.81
2018-08-31T04:28:00.362Z,93.27
2018-08-31T04:30:29.125Z,93.96
2018-08-31T04:32:57.692Z,93.83
2018-08-31T04:35:26.450Z,93.71
2018-08-31T04:37:55.170Z,93.92
2018-08-31T04:40:23.900Z,94.18
2018-08-31T04:42:52.531Z,94.96
2018-08-31T04:45:24.950Z,95.31
2018-08-31T04:47:53.732Z,94.50
2018-08-31T04:50:22.444Z,94.23
2018-08-31T04:52:51.139Z,93.90
2018-08-31T04:55:19.841Z,93.80
2018-08-31T04:57:48.551Z,93.78
2018-08-31T05:00:17.236Z,93.80
2018-08-31T05:02:45.855Z,93.96
2018-08-31T05:05:14.576Z,93.18
2018-08-31T05:07:43.384Z,93.76
2018-08-31T05:10:11.995Z,93.85
2018-08-31T05:12:40.653Z,93.45
2018-08-31T05:15:09.352Z,93.35
2018-08-31T05:17:37.987Z,93.22
2018-08-31T05:20:06.763Z,92.90
2018-08-31T05:22:35.424Z,92.71
2018-08-31T05:25:03.999Z,93.07
2018-08-31T05:27:32.765Z,92.98
2018-08-31T05:30:01.510Z,93.09
2018-08-31T05:32:30.198Z,92.56
2018-08-31T05:34:58.920Z,92.64
2018-08-31T05:37:27.731Z,92.56
2018-08-31T05:39:56.360Z,92.79
2018-08-31T05:42:25.336Z,92.46
2018-08-31T05:44:53.959Z,92.88
2018-08-31T05:47:22.601Z,92.94
2018-08-31T05:49:51.245Z,92.73
2018-08-31T05:52:19.852Z,92.66
2018-08-31T05:54:48.592Z,92.78
2018-08-31T05:57:17.329Z,92.72
2018-08-31T05:59:46.038Z,92.52
2018-08-31T06:02:14.843Z,92.62
2018-08-31T06:04:43.353Z,92.81
2018-08-31T06:07:12.275Z,92.44
2018-08-31T06:09:41.000Z,92.29
2018-08-31T06:12:09.741Z,92.02
2018-08-31T06:14:38.466Z,92.36
2018-08-31T06:17:07.155Z,91.66
2018-08-31T06:19:35.923Z,91.62
2018-08-31T06:22:04.587Z,91.29
2018-08-31T06:24:33.339Z,91.14
2018-08-31T06:27:02.140Z,90.75
2018-08-31T06:29:30.807Z,90.21
2018-08-31T06:31:59.568Z,90.33
2018-08-31T06:34:28.311Z,90.53
2018-08-31T06:36:56.988Z,89.56
2018-08-31T06:39:25.631Z,89.16
2018-08-31T06:41:54.369Z,88.94
2018-08-31T06:44:23.232Z,87.75
2018-08-31T06:46:53.001Z,87.96
2018-08-31T06:49:21.625Z,87.31
2018-08-31T06:51:50.255Z,87.64
2018-08-31T06:54:19.023Z,87.31
2018-08-31T06:56:47.621Z,87.09
2018-08-31T06:59:16.335Z,86.33
2018-08-31T07:01:45.091Z,85.97
2018-08-31T07:04:13.779Z,84.46
2018-08-31T07:06:42.503Z,84.25
2018-08-31T07:09:12.033Z,84.83
2018-08-31T07:11:40.929Z,84.46
2018-08-31T07:14:10.200Z,84.65
2018-08-31T07:16:39.371Z,84.13
2018-08-31T07:19:08.550Z,83.62
2018-08-31T07:21:37.648Z,82.92
2018-08-31T07:24:06.813Z,81.74
2018-08-31T07:26:35.532Z,77.26
2018-08-31T07:29:04.563Z,76.80
2018-08-31T07:31:33.932Z,76.42
2018-08-31T07:34:03.024Z,75.33
2018-08-31T07:36:34.922Z,75.15
2018-08-31T07:39:03.819Z,75.08
2018-08-31T07:41:33.312Z,73.78
2018-08-31T07:44:02.129Z,73.93
2018-08-31T07:46:30.902Z,71.11
2018-08-31T07:48:59.711Z,71.14
2018-08-31T07:51:28.485Z,71.23
2018-08-31T07:53:57.570Z,70.14
2018-08-31T07:56:26.232Z,70.89
2018-08-31T07:58:54.896Z,67.77
2018-08-31T08:01:23.488Z,67.71
2018-08-31T08:03:52.217Z,68.46
2018-08-31T08:06:20.968Z,67.16
2018-08-31T08:08:49.882Z,67.55
2018-08-31T08:11:18.595Z,67.47
2018-08-31T08:13:47.295Z,67.37
2018-08-31T08:16:16.108Z,63.74
2018-08-31T08:18:44.880Z,64.58
2018-08-31T08:21:13.549Z,65.49
2018-08-31T08:23:42.385Z,64.99
2018-08-31T08:26:11.030Z,63.59
2018-08-31T08:28:39.818Z,62.10
2018-08-31T08:31:08.564Z,62.91
2018-08-31T08:33:37.307Z,61.30
2018-08-31T08:36:07.499Z,61.06
2018-08-31T08:38:36.756Z,61.56
2018-08-31T08:41:06.356Z,62.41
2018-08-31T08:43:35.405Z,61.19
2018-08-31T08:46:04.077Z,59.62
2018-08-31T08:48:40.671Z,59.33
2018-08-31T08:51:09.256Z,57.26
2018-08-31T08:53:38.551Z,56.63
2018-08-31T08:56:07.676Z,55.90
2018-08-31T08:58:38.426Z,56.95
2018-08-31T09:01:07.080Z,56.36
2018-08-31T09:03:35.841Z,56.74
2018-08-31T09:06:04.918Z,56.91
2018-08-31T09:08:37.717Z,54.93
2018-08-31T09:11:06.589Z,55.90
2018-08-31T09:13:35.202Z,56.76
2018-08-31T09:16:04.255Z,56.87
2018-08-31T09:18:36.528Z,57.03
2018-08-31T09:21:06.283Z,57.39
2018-08-31T09:23:35.331Z,55.74
2018-08-31T09:26:07.008Z,55.74
2018-08-31T09:28:43.104Z,55.94
2018-08-31T09:31:14.136Z,53.89
2018-08-31T09:33:43.430Z,53.21
2018-08-31T09:36:13.714Z,53.40
2018-08-31T09:38:49.802Z,54.94
2018-08-31T09:41:18.532Z,53.99
2018-08-31T09:43:47.657Z,53.92
2018-08-31T09:46:17.269Z,54.82
2018-08-31T09:48:53.284Z,53.96
2018-08-31T09:51:21.990Z,53.01
2018-08-31T09:53:50.649Z,53.56
2018-08-31T09:56:19.519Z,52.98
2018-08-31T09:58:49.166Z,52.33
2018-08-31T10:01:23.224Z,52.58
2018-08-31T10:03:51.905Z,48.41
2018-08-31T10:06:21.209Z,49.67
2018-08-31T10:08:49.986Z,49.84
2018-08-31T10:11:18.627Z,51.04
2018-08-31T10:13:47.317Z,51.16
2018-08-31T10:16:15.979Z,47.40
2018-08-31T10:18:45.770Z,45.98
2018-08-31T10:21:14.340Z,46.58
2018-08-31T10:23:42.961Z,45.29
2018-08-31T10:26:11.708Z,43.81
2018-08-31T10:28:45.359Z,44.11
2018-08-31T10:31:14.203Z,42.85
2018-08-31T10:33:42.905Z,43.63
2018-08-31T10:36:11.607Z,41.71
2018-08-31T10:38:41.593Z,40.88
2018-08-31T10:41:10.282Z,42.67
2018-08-31T10:43:39.612Z,39.42
2018-08-31T10:46:08.479Z,41.55
2018-08-31T10:48:39.513Z,42.51
2018-08-31T10:51:08.229Z,42.91
2018-08-31T10:53:37.261Z,41.82
2018-08-31T10:56:06.145Z,40.92
2018-08-31T10:58:36.350Z,41.17
2018-08-31T11:01:06.032Z,41.17
2018-08-31T11:03:34.810Z,40.83
2018-08-31T11:06:03.553Z,38.75
2018-08-31T11:08:34.049Z,36.88
2018-08-31T11:11:03.210Z,37.50
2018-08-31T11:13:31.870Z,38.42
2018-08-31T11:16:01.114Z,38.27
2018-08-31T11:18:29.796Z,37.20
2018-08-31T11:20:58.903Z,36.36
2018-08-31T11:23:27.938Z,38.38
2018-08-31T11:25:56.617Z,40.12
2018-08-31T11:28:41.713Z,40.44
2018-08-31T11:31:10.440Z,40.74
2018-08-31T11:33:39.771Z,38.14
2018-08-31T11:36:08.491Z,38.21
2018-08-31T11:38:37.287Z,39.78
2018-08-31T11:41:06.873Z,39.73
2018-08-31T11:43:36.352Z,39.10
2018-08-31T11:46:05.129Z,39.49
2018-08-31T11:48:41.580Z,38.95
2018-08-31T11:51:10.683Z,38.28
2018-08-31T11:53:39.834Z,37.79
2018-08-31T11:56:08.770Z,37.90
2018-08-31T11:58:37.526Z,36.34
2018-08-31T12:01:06.927Z,37.52
2018-08-31T12:03:35.969Z,38.75
2018-08-31T12:06:05.269Z,39.31
2018-08-31T12:08:34.428Z,40.16
2018-08-31T12:11:03.695Z,40.17
2018-08-31T12:13:32.573Z,39.96
2018-08-31T12:16:01.713Z,39.29
2018-08-31T12:18:31.170Z,40.13
2018-08-31T12:21:00.173Z,41.10
2018-08-31T12:23:29.671Z,42.48
2018-08-31T12:25:58.644Z,42.64
2018-08-31T12:28:27.656Z,43.22
2018-08-31T12:31:00.023Z,42.76
2018-08-31T12:33:29.065Z,42.21
2018-08-31T12:35:58.444Z,41.86
2018-08-31T12:38:28.018Z,42.50
2018-08-31T12:40:58.437Z,41.48
2018-08-31T12:43:27.234Z,39.27
2018-08-31T12:45:56.417Z,38.16
2018-08-31T12:48:25.134Z,37.01
2018-08-31T12:51:02.208Z,38.38
2018-08-31T12:53:30.994Z,37.69
2018-08-31T12:55:59.888Z,37.14
2018-08-31T12:58:28.909Z,37.47
2018-08-31T13:01:28.208Z,38.04
2018-08-31T13:03:57.513Z,37.03
2018-08-31T13:06:26.767Z,38.81
2018-08-31T13:08:55.498Z,40.01
2018-08-31T13:11:24.840Z,40.85
2018-08-31T13:13:53.648Z,41.60
2018-08-31T13:16:23.195Z,42.94
2018-08-31T13:18:51.948Z,42.85
2018-08-31T13:21:57.120Z,43.62
2018-08-31T13:24:26.579Z,41.36
2018-08-31T13:26:57.565Z,42.74
2018-08-31T13:29:29.594Z,42.56
2018-08-31T13:31:58.344Z,42.88
2018-08-31T13:34:27.530Z,43.50
2018-08-31T13:36:56.380Z,43.32
2018-08-31T13:39:52.232Z,42.63
2018-08-31T13:42:20.964Z,41.90
2018-08-31T13:44:50.059Z,40.31
2018-08-31T13:47:20.701Z,38.36
2018-08-31T13:50:11.601Z,38.84
2018-08-31T13:52:40.308Z,38.69
2018-08-31T13:55:09.145Z,38.44
2018-08-31T13:57:37.907Z,33.44
2018-08-31T14:00:14.542Z,25.31
2018-08-31T14:02:43.755Z,22.52
2018-08-31T14:05:12.916Z,24.69
2018-08-31T14:07:42.523Z,22.74
2018-08-31T14:10:13.323Z,22.68
2018-08-31T14:12:42.389Z,20.36
2018-08-31T14:15:12.423Z,20.78
2018-08-31T14:17:41.165Z,18.98
2018-08-31T14:20:14.470Z,19.06
2018-08-31T14:22:43.541Z,22.38
2018-08-31T14:25:12.521Z,22.92
2018-08-31T14:27:41.443Z,22.29
2018-08-31T14:30:34.194Z,20.30
2018-08-31T14:33:03.526Z,19.74
2018-08-31T14:35:33.264Z,21.27
2018-08-31T14:38:02.473Z,21.48
2018-08-31T14:40:32.303Z,23.08
2018-08-31T14:43:01.038Z,18.29
2018-08-31T14:45:33.556Z,19.14
2018-08-31T14:48:03.003Z,18.87
2018-08-31T14:50:31.777Z,18.20
2018-08-31T14:53:01.252Z,15.10
2018-08-31T14:55:30.316Z,16.69
2018-08-31T14:57:59.446Z,17.25
2018-08-31T15:00:29.624Z,16.87
2018-08-31T15:02:58.932Z,17.24
2018-08-31T15:05:27.668Z,15.73
2018-08-31T15:07:56.912Z,16.71
2018-08-31T15:10:28.128Z,17.46
2018-08-31T15:12:56.867Z,17.66
2018-08-31T15:15:25.884Z,16.60
2018-08-31T15:17:54.701Z,17.27
2018-08-31T15:20:23.799Z,18.35
2018-08-31T15:22:52.864Z,17.56
2018-08-31T15:25:21.984Z,19.13
2018-08-31T15:27:50.857Z,21.54
2018-08-31T15:30:19.880Z,25.54
2018-08-31T15:32:48.900Z,24.67
2018-08-31T15:35:18.513Z,23.06
2018-08-31T15:37:48.259Z,23.13
2018-08-31T15:40:17.081Z,26.05
2018-08-31T15:42:47.269Z,25.16
2018-08-31T15:45:16.225Z,26.62
2018-08-31T15:47:45.013Z,26.28
2018-08-31T15:50:14.470Z,26.45
2018-08-31T15:52:45.550Z,26.87
2018-08-31T15:55:15.051Z,26.54
2018-08-31T15:57:44.147Z,23.12
2018-08-31T16:00:17.749Z,22.59
2018-08-31T16:03:07.121Z,25.98
2018-08-31T16:05:36.561Z,27.83
2018-08-31T16:08:05.610Z,29.74
2018-08-31T16:10:34.749Z,32.72
2018-08-31T16:13:05.911Z,36.49
2018-08-31T16:15:35.000Z,38.45
2018-08-31T16:18:08.368Z,40.02
2018-08-31T16:20:41.591Z,40.65
2018-08-31T16:23:18.416Z,42.69
2018-08-31T16:25:47.567Z,43.17
2018-08-31T16:28:16.279Z,43.84
2018-08-31T16:30:46.505Z,44.57
2018-08-31T16:33:16.508Z,45.49
2018-08-31T16:35:45.663Z,47.02
2018-08-31T16:38:14.616Z,48.11
2018-08-31T16:40:51.758Z,48.79
2018-08-31T16:43:34.785Z,49.36
2018-08-31T16:46:03.710Z,49.04
2018-08-31T16:48:32.345Z,49.36
2018-08-31T16:51:00.934Z,50.58
2018-08-31T16:53:30.663Z,50.94
2018-08-31T16:55:59.410Z,50.83
2018-08-31T16:58:28.112Z,52.74
2018-08-31T17:00:56.821Z,53.72
2018-08-31T17:03:27.704Z,55.19
2018-08-31T17:05:56.317Z,56.45
2018-08-31T17:08:24.958Z,57.74
2018-08-31T17:10:53.621Z,58.14
2018-08-31T17:13:22.341Z,58.12
2018-08-31T17:15:51.287Z,58.36
2018-08-31T17:18:19.899Z,58.47
2018-08-31T17:20:48.695Z,58.58
2018-08-31T17:23:17.363Z,58.76
2018-08-31T17:25:45.966Z,58.14
2018-08-31T17:28:19.969Z,58.41
2018-08-31T17:30:48.728Z,58.54
2018-08-31T17:33:22.705Z,58.65
2018-08-31T17:35:56.727Z,58.63
2018-08-31T17:38:25.357Z,58.80
2018-08-31T17:40:54.945Z,58.85
2018-08-31T17:43:23.606Z,58.90
2018-08-31T17:45:52.405Z,58.89
2018-08-31T17:48:21.108Z,59.16
2018-08-31T17:50:49.735Z,59.19
2018-08-31T17:53:18.468Z,59.34
2018-08-31T17:55:47.174Z,59.26
2018-08-31T17:58:15.901Z,59.41
2018-08-31T18:00:44.588Z,59.44
2018-08-31T18:03:13.251Z,59.87
2018-08-31T18:05:41.883Z,60.28
2018-08-31T18:08:10.678Z,60.97
2018-08-31T18:10:39.353Z,60.90
2018-08-31T18:13:08.170Z,61.13
2018-08-31T18:15:36.892Z,61.86
2018-08-31T18:18:05.701Z,62.02
2018-08-31T18:20:34.317Z,62.26
2018-08-31T18:23:03.068Z,62.52
2018-08-31T18:25:31.851Z,62.65
2018-08-31T18:28:00.531Z,63.24
2018-08-31T18:30:29.242Z,63.23
2018-08-31T18:32:57.859Z,63.96
2018-08-31T18:35:26.489Z,63.59
2018-08-31T18:37:55.046Z,64.00
2018-08-31T18:40:23.703Z,64.18
2018-08-31T18:42:52.542Z,63.77
2018-08-31T18:45:21.218Z,64.24
2018-08-31T18:47:49.873Z,64.11
2018-08-31T18:50:18.614Z,64.24
2018-08-31T18:52:47.286Z,64.32
2018-08-31T18:55:15.972Z,64.33
2018-08-31T18:57:44.587Z,64.50
2018-08-31T19:00:13.196Z,64.62
2018-08-31T19:02:41.946Z,64.26
2018-08-31T19:05:10.770Z,64.19
2018-08-31T19:07:39.500Z,64.71
2018-08-31T19:10:08.263Z,64.77
2018-08-31T19:12:37.033Z,64.60
2018-08-31T19:15:05.831Z,64.95
2018-08-31T19:17:34.465Z,64.74
2018-08-31T19:20:03.147Z,65.07
2018-08-31T19:22:31.811Z,65.24
2018-08-31T19:25:00.575Z,65.34
2018-08-31T19:27:29.279Z,65.78
2018-08-31T19:29:57.968Z,65.59
2018-08-31T19:32:27.750Z,66.09
2018-08-31T19:34:56.351Z,65.67
2018-08-31T19:37:25.032Z,66.06
2018-08-31T19:39:53.717Z,66.22
2018-08-31T19:42:22.406Z,66.54
2018-08-31T19:44:51.065Z,66.22
2018-08-31T19:47:19.677Z,66.41
2018-08-31T19:49:48.424Z,67.00
2018-08-31T19:52:17.295Z,67.07
2018-08-31T19:54:45.975Z,66.92
2018-08-31T19:57:14.655Z,67.11
2018-08-31T19:59:43.311Z,67.12
2018-08-31T20:02:11.967Z,67.54
2018-08-31T20:04:40.644Z,67.52
2018-08-31T20:07:09.326Z,67.65
2018-08-31T20:09:37.943Z,67.87
2018-08-31T20:12:06.636Z,67.83
2018-08-31T20:14:35.315Z,68.08
2018-08-31T20:17:04.090Z,68.03
2018-08-31T20:19:32.947Z,68.58
2018-08-31T20:22:01.771Z,68.83
2018-08-31T20:24:30.446Z,68.77
2018-08-31T20:26:59.136Z,69.11
2018-08-31T20:29:27.888Z,69.28
2018-08-31T20:31:56.585Z,69.06
2018-08-31T20:34:25.134Z,69.17
2018-08-31T20:36:53.876Z,69.80
2018-08-31T20:39:22.561Z,69.83
2018-08-31T20:41:51.402Z,70.00
2018-08-31T20:44:20.090Z,70.05
2018-08-31T20:46:48.783Z,69.85
2018-08-31T20:49:17.491Z,70.32
2018-08-31T20:51:46.127Z,70.64
2018-08-31T20:54:14.847Z,70.97
2018-08-31T20:56:43.605Z,71.25
2018-08-31T20:59:12.240Z,71.14
2018-08-31T21:01:40.775Z,70.93
2018-08-31T21:04:09.401Z,71.60
2018-08-31T21:06:38.028Z,71.52
2018-08-31T21:09:09.341Z,71.86
2018-08-31T21:11:38.046Z,72.08
2018-08-31T21:14:06.685Z,71.97
2018-08-31T21:16:35.372Z,72.19
2018-08-31T21:19:04.180Z,72.73
2018-08-31T21:21:32.892Z,72.43
2018-08-31T21:24:01.604Z,72.91
2018-08-31T21:26:30.353Z,72.56
2018-08-31T21:28:59.016Z,72.68
2018-08-31T21:31:27.707Z,72.99
2018-08-31T21:33:56.448Z,73.18
2018-08-31T21:36:25.017Z,73.72
2018-08-31T21:38:53.739Z,73.78
2018-08-31T21:41:22.414Z,73.71
2018-08-31T21:43:51.158Z,73.79
2018-08-31T21:46:19.875Z,74.15
2018-08-31T21:48:48.590Z,74.01
2018-08-31T21:51:17.571Z,74.18
2018-08-31T21:53:46.363Z,74.31
2018-08-31T21:56:15.028Z,74.01
2018-08-31T21:58:43.987Z,74.29
2018-08-31T22:01:17.881Z,74.04
2018-08-31T22:03:46.521Z,74.33
2018-08-31T22:06:15.286Z,74.22
2018-08-31T22:08:43.965Z,74.32
2018-08-31T22:11:12.636Z,74.44
2018-08-31T22:13:41.447Z,74.77
2018-08-31T22:16:10.197Z,74.80
2018-08-31T22:18:38.921Z,75.33
2018-08-31T22:21:07.619Z,75.35
2018-08-31T22:23:36.387Z,75.57
2018-08-31T22:26:05.044Z,75.82
2018-08-31T22:28:33.817Z,75.87
2018-08-31T22:31:02.525Z,76.07
2018-08-31T22:33:31.062Z,76.18
2018-08-31T22:35:59.696Z,76.67
2018-08-31T22:38:28.321Z,77.14
2018-08-31T22:40:57.129Z,77.02
2018-08-31T22:43:31.211Z,77.63
2018-08-31T22:46:03.689Z,77.90
2018-08-31T22:48:32.302Z,78.33
2018-08-31T22:51:00.986Z,78.28
2018-08-31T22:53:29.600Z,78.95
2018-08-31T22:55:58.220Z,78.71
2018-08-31T22:58:26.871Z,78.76
2018-08-31T23:00:55.450Z,79.45
2018-08-31T23:03:24.139Z,79.66
2018-08-31T23:05:52.890Z,79.98
2018-08-31T23:08:21.584Z,79.92
2018-08-31T23:10:50.312Z,79.54
2018-08-31T23:13:18.967Z,79.59
2018-08-31T23:15:47.603Z,79.82
2018-08-31T23:18:16.232Z,79.98
2018-08-31T23:20:44.901Z,79.61
2018-08-31T23:24:19.258Z,79.73
2018-08-31T23:26:47.904Z,79.61
2018-08-31T23:29:16.457Z,79.85
2018-08-31T23:31:45.086Z,79.96
2018-08-31T23:34:13.797Z,79.94
2018-08-31T23:36:42.466Z,80.24
2018-08-31T23:39:11.131Z,79.82
2018-08-31T23:41:39.806Z,79.87
2018-08-31T23:44:08.432Z,80.26
2018-08-31T23:46:37.158Z,80.53
2018-08-31T23:49:05.920Z,80.67
2018-08-31T23:51:34.591Z,80.68
2018-08-31T23:54:03.428Z,80.44
2018-08-31T23:56:32.170Z,80.56
2018-08-31T23:59:00.920Z,80.92
